Time;durP1;ratioP1;P1;durP2;ratioP2;P2;SDS_P1;SDS_P2;PMS_P1;PMS_P2;Temp;Humidity;BMP_temperature;BMP_pressure;BME280_temperature;BME280_humidity;BME280_pressure;Samples;Min_cycle;Max_cycle;Signal;HPM_P1;HPM_P2
2023/02/20 00:00:40;;;;;;;8.88;1.70;;;;;;;;;;6152366;23;20374;-82
2023/02/20 00:03:08;;;;;;;5.50;1.50;;;;;;;;;;6125586;23;20459;-82
2023/02/20 00:05:36;;;;;;;7.55;1.75;;;;;;;;;;6150134;23;20382;-81
2023/02/20 00:08:05;;;;;;;7.18;1.63;;;;;;;;;;6151783;23;20944;-81
2023/02/20 00:10:39;;;;;;;4.88;1.50;;;;;;;;;;6150203;23;20868;-83
2023/02/20 00:13:07;;;;;;;6.35;1.73;;;;;;;;;;6126350;23;20387;-81
2023/02/20 00:15:39;;;;;;;10.43;1.58;;;;;;;;;;6125952;23;20391;-81
2023/02/20 00:18:14;;;;;;;7.38;1.70;;;;;;;;;;6126894;23;20855;-81
2023/02/20 00:20:46;;;;;;;7.03;1.60;;;;;;;;;;6125857;23;20410;-81
2023/02/20 00:23:14;;;;;;;8.18;1.35;;;;;;;;;;6124525;23;20387;-82
2023/02/20 00:25:43;;;;;;;6.57;1.60;;;;;;;;;;6125998;23;20379;-81
2023/02/20 00:28:11;;;;;;;6.38;1.80;;;;;;;;;;6124677;23;20390;-81
2023/02/20 00:30:39;;;;;;;9.90;1.73;;;;;;;;;;6152962;23;20359;-82
2023/02/20 00:33:13;;;;;;;5.88;1.70;;;;;;;;;;6150776;23;20378;-81
2023/02/20 00:35:49;;;;;;;7.93;1.90;;;;;;;;;;6126444;23;20382;-80
2023/02/20 00:38:21;;;;;;;6.90;2.27;;;;;;;;;;6163684;23;20394;-82
2023/02/20 00:40:51;;;;;;;8.18;2.35;;;;;;;;;;6127154;23;20386;-82
2023/02/20 00:43:18;;;;;;;9.38;2.20;;;;;;;;;;6127040;23;20378;-81
2023/02/20 00:45:46;;;;;;;7.82;2.30;;;;;;;;;;6153480;23;20367;-81
2023/02/20 00:48:19;;;;;;;6.30;2.10;;;;;;;;;;6164201;23;20377;-82
2023/02/20 00:50:47;;;;;;;9.43;2.15;;;;;;;;;;6154517;23;20371;-81
2023/02/20 00:53:19;;;;;;;9.13;2.38;;;;;;;;;;6152331;23;20386;-81
2023/02/20 00:55:54;;;;;;;7.47;2.20;;;;;;;;;;6128040;23;20386;-81
2023/02/20 00:58:27;;;;;;;7.72;2.58;;;;;;;;;;6127796;23;20899;-82
2023/02/20 01:00:59;;;;;;;6.22;2.25;;;;;;;;;;6151953;23;20379;-82
2023/02/20 01:03:32;;;;;;;8.80;2.80;;;;;;;;;;6127320;23;20692;-82
2023/02/20 01:06:00;;;;;;;7.88;2.80;;;;;;;;;;6125918;23;20387;-82
2023/02/20 01:08:28;;;;;;;10.90;2.67;;;;;;;;;;6126978;23;20383;-81
2023/02/20 01:11:04;;;;;;;10.38;3.10;;;;;;;;;;6152722;23;20371;-81
2023/02/20 01:13:32;;;;;;;9.50;3.20;;;;;;;;;;6128022;23;20379;-81
2023/02/20 01:16:07;;;;;;;9.82;3.15;;;;;;;;;;6128026;23;20379;-81
2023/02/20 01:18:40;;;;;;;9.85;3.58;;;;;;;;;;6163366;23;20404;-81
2023/02/20 01:21:07;;;;;;;8.43;3.22;;;;;;;;;;6126312;23;20379;-82
2023/02/20 01:23:40;;;;;;;10.80;3.50;;;;;;;;;;6163864;23;20390;-81
2023/02/20 01:26:09;;;;;;;10.27;4.07;;;;;;;;;;6126771;23;20390;-83
2023/02/20 01:28:37;;;;;;;7.72;3.80;;;;;;;;;;6126867;23;20611;-81
2023/02/20 01:31:05;;;;;;;12.20;3.95;;;;;;;;;;6126309;23;20383;-81
2023/02/20 01:33:34;;;;;;;11.30;3.97;;;;;;;;;;6127044;23;20748;-82
2023/02/20 01:36:07;;;;;;;12.13;4.10;;;;;;;;;;6150793;23;20378;-82
2023/02/20 01:38:40;;;;;;;7.95;3.78;;;;;;;;;;6163220;23;20391;-81
2023/02/20 01:41:08;;;;;;;8.75;4.03;;;;;;;;;;6152093;23;20387;-82
2023/02/20 01:43:37;;;;;;;9.60;4.20;;;;;;;;;;6126998;23;20386;-81
2023/02/20 01:46:28;;;;;;;10.80;4.10;;;;;;;;;;6162925;23;20383;-81
2023/02/20 01:49:04;;;;;;;8.80;3.95;;;;;;;;;;6126552;23;20371;-81
2023/02/20 01:51:39;;;;;;;9.15;4.50;;;;;;;;;;6126658;23;20398;-81
2023/02/20 01:54:08;;;;;;;10.77;4.60;;;;;;;;;;6153384;23;20367;-82
2023/02/20 01:56:41;;;;;;;11.15;4.30;;;;;;;;;;6126070;23;20708;-81
2023/02/20 01:59:16;;;;;;;8.40;4.15;;;;;;;;;;6127845;23;20894;-82
2023/02/20 02:01:48;;;;;;;9.45;4.20;;;;;;;;;;6151161;23;20398;-81
2023/02/20 02:04:16;;;;;;;8.68;4.13;;;;;;;;;;6126167;23;20383;-81
2023/02/20 02:06:47;;;;;;;11.77;4.28;;;;;;;;;;6126899;23;20374;-81
2023/02/20 02:09:24;;;;;;;9.88;3.90;;;;;;;;;;6149527;23;20371;-81
2023/02/20 02:11:52;;;;;;;9.10;3.80;;;;;;;;;;6152846;23;20358;-81
2023/02/20 02:14:26;;;;;;;12.32;4.55;;;;;;;;;;6127822;23;20395;-81
2023/02/20 02:17:16;;;;;;;9.77;4.17;;;;;;;;;;6126037;23;20391;-81
2023/02/20 02:19:54;;;;;;;11.45;4.32;;;;;;;;;;6126881;23;20387;-81
2023/02/20 02:22:50;;;;;;;9.77;4.10;;;;;;;;;;6162310;23;20375;-82
2023/02/20 02:25:33;;;;;;;9.77;4.07;;;;;;;;;;6162680;23;20367;-82
2023/02/20 02:28:19;;;;;;;8.97;3.70;;;;;;;;;;6150268;23;20403;-81
2023/02/20 02:31:07;;;;;;;9.83;4.20;;;;;;;;;;6150553;23;20402;-81
2023/02/20 02:33:58;;;;;;;9.40;3.97;;;;;;;;;;6162418;23;20432;-83
2023/02/20 02:36:48;;;;;;;11.05;4.20;;;;;;;;;;6162689;23;20371;-81
2023/02/20 02:39:25;;;;;;;9.53;3.97;;;;;;;;;;6150032;23;20397;-80
2023/02/20 02:42:03;;;;;;;11.35;3.90;;;;;;;;;;6126776;23;20852;-82
2023/02/20 02:44:34;;;;;;;10.52;3.78;;;;;;;;;;6162571;23;20389;-82
2023/02/20 02:47:09;;;;;;;10.23;3.60;;;;;;;;;;6126045;23;20705;-82
2023/02/20 02:49:39;;;;;;;11.48;4.35;;;;;;;;;;6126487;23;20386;-82
2023/02/20 02:52:37;;;;;;;11.05;4.05;;;;;;;;;;6153457;23;20399;-82
2023/02/20 02:55:10;;;;;;;12.48;4.10;;;;;;;;;;6126649;23;20375;-81
2023/02/20 02:57:43;;;;;;;8.33;3.70;;;;;;;;;;6150848;23;20468;-81
2023/02/20 03:00:12;;;;;;;9.70;3.97;;;;;;;;;;6152336;23;20414;-81
2023/02/20 03:02:51;;;;;;;9.38;4.00;;;;;;;;;;6151386;23;20377;-82
2023/02/20 03:05:26;;;;;;;12.02;4.20;;;;;;;;;;6126488;23;20402;-81
2023/02/20 03:08:00;;;;;;;8.53;3.87;;;;;;;;;;6162805;23;20379;-81
2023/02/20 03:10:33;;;;;;;9.52;3.78;;;;;;;;;;6125433;23;20382;-81
2023/02/20 03:13:11;;;;;;;10.63;3.97;;;;;;;;;;6127171;23;20847;-82
2023/02/20 03:15:45;;;;;;;8.43;4.10;;;;;;;;;;6125515;23;20382;-81
2023/02/20 03:18:23;;;;;;;10.68;4.50;;;;;;;;;;6150215;23;20870;-82
2023/02/20 03:20:58;;;;;;;11.90;4.40;;;;;;;;;;6124215;23;20391;-81
2023/02/20 03:23:30;;;;;;;9.73;4.17;;;;;;;;;;6152075;23;20370;-81
2023/02/20 03:26:06;;;;;;;9.68;4.15;;;;;;;;;;6162154;23;20371;-82
2023/02/20 03:28:40;;;;;;;9.75;4.20;;;;;;;;;;6162266;23;20379;-82
2023/02/20 03:31:14;;;;;;;10.35;4.32;;;;;;;;;;6149207;23;20701;-81
2023/02/20 03:45:22;;;;;;;9.60;4.20;;;;;;;;;;6125291;23;20382;-81
2023/02/20 03:47:58;;;;;;;9.60;3.97;;;;;;;;;;6150304;23;20394;-81
2023/02/20 03:53:23;;;;;;;10.17;4.27;;;;;;;;;;6125189;23;20460;-81
2023/02/20 03:55:54;;;;;;;9.68;4.20;;;;;;;;;;6124735;23;20394;-82
2023/02/20 03:58:28;;;;;;;10.20;4.63;;;;;;;;;;6150419;23;20391;-81
2023/02/20 04:01:03;;;;;;;9.73;4.47;;;;;;;;;;6150241;23;20390;-82
2023/02/20 04:03:33;;;;;;;11.20;4.43;;;;;;;;;;6125290;23;20390;-81
2023/02/20 04:06:08;;;;;;;9.13;4.00;;;;;;;;;;6124223;23;20383;-82
2023/02/20 04:08:38;;;;;;;8.32;4.30;;;;;;;;;;6124342;23;20398;-82
2023/02/20 04:11:14;;;;;;;10.07;4.13;;;;;;;;;;6124881;23;20876;-82
2023/02/20 04:13:44;;;;;;;12.32;4.95;;;;;;;;;;6124299;23;20385;-82
2023/02/20 04:16:12;;;;;;;8.90;4.47;;;;;;;;;;6125145;23;20379;-81
2023/02/20 04:18:45;;;;;;;10.10;4.57;;;;;;;;;;6148787;23;20381;-81
2023/02/20 04:21:20;;;;;;;9.77;4.60;;;;;;;;;;6161995;23;20391;-81
2023/02/20 04:23:51;;;;;;;9.80;4.80;;;;;;;;;;6125468;23;20697;-83
2023/02/20 04:26:21;;;;;;;11.07;5.03;;;;;;;;;;6124846;23;20382;-81
2023/02/20 04:28:53;;;;;;;11.18;4.95;;;;;;;;;;6148456;23;20391;-82
2023/02/20 04:31:27;;;;;;;10.13;4.95;;;;;;;;;;6123880;23;20409;-81
2023/02/20 04:34:00;;;;;;;9.63;4.82;;;;;;;;;;6150205;23;20883;-82
2023/02/20 04:36:28;;;;;;;10.48;5.00;;;;;;;;;;6150037;23;20681;-81
2023/02/20 04:39:03;;;;;;;9.88;5.00;;;;;;;;;;6126054;23;20385;-81
2023/02/20 04:41:38;;;;;;;11.02;5.05;;;;;;;;;;6149591;23;20393;-82
2023/02/20 04:46:56;;;;;;;10.20;5.70;;;;;;;;;;6125167;23;20402;-82
2023/02/20 04:49:25;;;;;;;13.10;5.65;;;;;;;;;;6124694;23;20394;-81
2023/02/20 04:52:00;;;;;;;10.80;5.47;;;;;;;;;;6125287;23;20375;-82
2023/02/20 04:54:33;;;;;;;11.02;5.70;;;;;;;;;;6126009;23;20394;-82
2023/02/20 04:57:09;;;;;;;13.02;5.93;;;;;;;;;;6150140;23;20967;-81
2023/02/20 04:59:37;;;;;;;12.73;6.35;;;;;;;;;;6126377;23;20383;-81
2023/02/20 05:02:11;;;;;;;11.15;6.05;;;;;;;;;;6149059;23;20395;-82
2023/02/20 05:04:44;;;;;;;11.93;5.95;;;;;;;;;;6162059;23;20382;-81
2023/02/20 05:07:17;;;;;;;11.93;6.47;;;;;;;;;;6161909;23;20374;-81
2023/02/20 05:09:49;;;;;;;13.55;6.78;;;;;;;;;;6161860;23;20701;-82
2023/02/20 05:12:23;;;;;;;14.73;6.40;;;;;;;;;;6161215;23;20375;-81
2023/02/20 05:14:56;;;;;;;13.35;6.47;;;;;;;;;;6149281;23;21147;-81
2023/02/20 05:17:24;;;;;;;13.48;6.30;;;;;;;;;;6151342;23;20374;-81
2023/02/20 05:19:52;;;;;;;14.27;7.00;;;;;;;;;;6125186;23;20391;-81
2023/02/20 05:22:23;;;;;;;13.52;6.90;;;;;;;;;;6149192;23;20407;-81
2023/02/20 05:24:56;;;;;;;12.45;6.80;;;;;;;;;;6163643;23;21130;-81
2023/02/20 05:27:26;;;;;;;14.32;7.10;;;;;;;;;;6154192;23;20371;-82
2023/02/20 05:30:00;;;;;;;12.80;6.80;;;;;;;;;;6163851;23;20681;-81
2023/02/20 05:32:33;;;;;;;13.45;6.90;;;;;;;;;;6125850;23;20387;-81
2023/02/20 05:35:06;;;;;;;13.93;6.80;;;;;;;;;;6151397;23;20863;-82
2023/02/20 05:37:39;;;;;;;14.50;7.60;;;;;;;;;;6126481;23;20394;-82
2023/02/20 05:40:12;;;;;;;14.70;7.15;;;;;;;;;;6162288;23;20378;-81
2023/02/20 05:42:42;;;;;;;13.73;7.60;;;;;;;;;;6152859;23;20383;-81
2023/02/20 05:45:15;;;;;;;13.40;7.60;;;;;;;;;;6150352;23;20387;-81
2023/02/20 05:47:47;;;;;;;13.85;7.00;;;;;;;;;;6151276;23;20390;-81
2023/02/20 05:50:20;;;;;;;12.95;7.53;;;;;;;;;;6150477;23;20390;-81
2023/02/20 05:52:53;;;;;;;14.68;7.43;;;;;;;;;;6150705;23;20394;-81
2023/02/20 05:55:26;;;;;;;14.35;7.68;;;;;;;;;;6162350;23;20382;-81
2023/02/20 05:57:55;;;;;;;13.40;7.80;;;;;;;;;;6127035;23;20402;-81
2023/02/20 06:00:27;;;;;;;14.88;8.07;;;;;;;;;;6162857;23;20374;-81
2023/02/20 06:03:00;;;;;;;14.45;7.68;;;;;;;;;;6145911;23;20856;-82
2023/02/20 06:05:33;;;;;;;15.65;8.23;;;;;;;;;;6149054;23;20413;-82
2023/02/20 06:08:06;;;;;;;16.92;9.10;;;;;;;;;;6125829;23;20397;-81
2023/02/20 06:10:38;;;;;;;16.88;8.73;;;;;;;;;;6161775;23;20596;-81
2023/02/20 06:13:13;;;;;;;18.35;8.63;;;;;;;;;;6150363;23;20685;-82
2023/02/20 06:15:40;;;;;;;14.68;8.35;;;;;;;;;;6152674;23;20379;-81
2023/02/20 06:18:13;;;;;;;16.58;8.30;;;;;;;;;;6150460;23;20856;-81
2023/02/20 06:20:41;;;;;;;14.77;8.60;;;;;;;;;;6149695;23;20398;-81
2023/02/20 06:23:14;;;;;;;17.92;8.95;;;;;;;;;;6149726;23;20437;-81
2023/02/20 06:25:46;;;;;;;17.73;8.90;;;;;;;;;;6150030;23;20402;-81
2023/02/20 06:28:16;;;;;;;16.60;8.77;;;;;;;;;;6125796;23;20398;-82
2023/02/20 06:30:49;;;;;;;16.03;9.03;;;;;;;;;;6149989;23;20478;-81
2023/02/20 06:33:22;;;;;;;18.63;9.20;;;;;;;;;;6161749;23;20371;-81
2023/02/20 06:35:50;;;;;;;19.13;9.77;;;;;;;;;;6125439;23;20390;-82
2023/02/20 06:38:24;;;;;;;17.90;9.10;;;;;;;;;;6162564;23;20401;-81
2023/02/20 06:40:57;;;;;;;15.50;8.55;;;;;;;;;;6162914;23;20375;-81
2023/02/20 06:43:26;;;;;;;17.35;8.93;;;;;;;;;;6152658;23;20379;-82
2023/02/20 06:45:59;;;;;;;19.45;9.73;;;;;;;;;;6149737;23;20394;-81
2023/02/20 06:48:45;;;;;;;17.48;9.02;;;;;;;;;;6162760;23;20378;-81
2023/02/20 06:51:31;;;;;;;18.52;9.95;;;;;;;;;;6124650;23;20391;-81
2023/02/20 06:54:18;;;;;;;18.45;9.30;;;;;;;;;;6162229;23;20383;-81
2023/02/20 06:57:04;;;;;;;18.52;9.50;;;;;;;;;;6163043;23;20371;-81
2023/02/20 06:59:40;;;;;;;17.42;9.38;;;;;;;;;;6124226;23;20379;-81
2023/02/20 07:02:15;;;;;;;16.73;9.45;;;;;;;;;;6150449;23;21091;-81
2023/02/20 07:04:47;;;;;;;19.98;9.90;;;;;;;;;;6124877;23;20379;-81
2023/02/20 07:07:14;;;;;;;18.65;9.70;;;;;;;;;;6125045;23;20387;-81
2023/02/20 07:09:47;;;;;;;18.67;10.02;;;;;;;;;;6150236;23;20391;-82
2023/02/20 07:12:20;;;;;;;20.52;9.70;;;;;;;;;;6126899;23;20387;-81
2023/02/20 07:14:54;;;;;;;17.35;9.38;;;;;;;;;;6162608;23;20390;-81
2023/02/20 07:17:22;;;;;;;20.27;9.90;;;;;;;;;;6152257;23;20377;-80
2023/02/20 07:19:50;;;;;;;16.35;9.88;;;;;;;;;;6149209;23;20681;-82
2023/02/20 07:22:23;;;;;;;19.95;10.93;;;;;;;;;;6149679;23;20391;-82
2023/02/20 07:24:51;;;;;;;18.65;10.18;;;;;;;;;;6149674;23;20378;-82
2023/02/20 07:27:19;;;;;;;19.90;10.50;;;;;;;;;;6151584;23;20833;-81
2023/02/20 07:29:51;;;;;;;20.05;11.45;;;;;;;;;;6149999;23;20398;-81
2023/02/20 07:32:25;;;;;;;19.55;11.40;;;;;;;;;;6161709;23;20431;-81
2023/02/20 07:34:58;;;;;;;20.93;12.07;;;;;;;;;;6126270;23;20390;-80
2023/02/20 07:37:26;;;;;;;23.92;12.55;;;;;;;;;;6150005;23;20382;-81
2023/02/20 07:39:54;;;;;;;22.77;12.90;;;;;;;;;;6151636;23;20371;-82
2023/02/20 07:42:27;;;;;;;22.58;12.98;;;;;;;;;;6162231;23;20387;-81
2023/02/20 07:45:18;;;;;;;22.63;13.43;;;;;;;;;;6162260;23;20385;-81
2023/02/20 07:47:52;;;;;;;23.60;14.45;;;;;;;;;;6150039;23;20398;-80
2023/02/20 07:50:25;;;;;;;24.48;14.30;;;;;;;;;;6126378;23;20386;-81
2023/02/20 07:52:58;;;;;;;25.13;14.45;;;;;;;;;;6126312;23;20389;-82
2023/02/20 07:55:31;;;;;;;23.88;14.68;;;;;;;;;;6125768;23;20725;-81
2023/02/20 07:58:03;;;;;;;25.10;14.20;;;;;;;;;;6150794;23;20383;-81
2023/02/20 08:00:31;;;;;;;26.38;15.98;;;;;;;;;;6149676;23;20391;-82
2023/02/20 08:03:05;;;;;;;27.88;16.48;;;;;;;;;;6162286;23;20382;-81
2023/02/20 08:05:38;;;;;;;25.90;15.25;;;;;;;;;;6160966;23;20398;-82
2023/02/20 08:08:06;;;;;;;26.98;16.08;;;;;;;;;;6151350;23;20367;-82
2023/02/20 08:10:38;;;;;;;24.10;15.32;;;;;;;;;;6159168;23;20713;-81
2023/02/20 08:13:11;;;;;;;26.88;16.25;;;;;;;;;;6125122;23;20383;-81
2023/02/20 08:15:44;;;;;;;26.80;15.50;;;;;;;;;;6161472;23;20379;-81
2023/02/20 08:18:18;;;;;;;29.52;16.65;;;;;;;;;;6161070;23;20839;-81
2023/02/20 08:20:51;;;;;;;28.17;16.65;;;;;;;;;;6149736;23;20879;-81
2023/02/20 08:23:24;;;;;;;27.25;16.13;;;;;;;;;;6160794;23;20389;-82
2023/02/20 08:25:58;;;;;;;28.55;17.20;;;;;;;;;;6160736;23;20389;-82
2023/02/20 08:28:31;;;;;;;30.77;16.85;;;;;;;;;;6124631;23;20374;-82
2023/02/20 08:31:04;;;;;;;29.38;17.05;;;;;;;;;;6160183;23;20379;-82
2023/02/20 08:33:38;;;;;;;28.50;16.88;;;;;;;;;;6148391;23;20795;-81
2023/02/20 08:36:13;;;;;;;35.35;18.17;;;;;;;;;;6149665;23;20390;-83
2023/02/20 08:38:46;;;;;;;29.33;17.13;;;;;;;;;;6148107;23;20390;-85
2023/02/20 08:41:13;;;;;;;30.23;17.15;;;;;;;;;;6124602;23;20387;-81
2023/02/20 08:43:46;;;;;;;32.20;18.38;;;;;;;;;;6160590;23;20409;-81
2023/02/20 08:46:19;;;;;;;29.15;17.40;;;;;;;;;;6124325;23;20391;-82
2023/02/20 08:48:53;;;;;;;30.38;17.38;;;;;;;;;;6161795;23;20700;-83
2023/02/20 08:51:21;;;;;;;32.10;18.37;;;;;;;;;;6151077;23;20379;-83
2023/02/20 08:53:49;;;;;;;34.83;17.48;;;;;;;;;;6151170;23;20367;-82
2023/02/20 08:56:22;;;;;;;33.95;19.20;;;;;;;;;;6138226;23;20383;-82
2023/02/20 08:58:55;;;;;;;30.70;18.35;;;;;;;;;;6113934;23;20421;-81
2023/02/20 09:01:27;;;;;;;33.83;19.40;;;;;;;;;;6145502;23;20393;-83
2023/02/20 09:04:02;;;;;;;33.63;18.80;;;;;;;;;;6124339;23;20822;-83
2023/02/20 09:06:35;;;;;;;33.97;18.60;;;;;;;;;;6124034;23;20382;-82
2023/02/20 09:09:08;;;;;;;30.85;19.45;;;;;;;;;;6100832;23;20884;-81
2023/02/20 09:11:40;;;;;;;36.53;20.35;;;;;;;;;;6102653;23;20391;-82
2023/02/20 09:14:13;;;;;;;40.22;21.05;;;;;;;;;;6130562;23;20413;-82
2023/02/20 09:16:46;;;;;;;39.70;20.35;;;;;;;;;;6127523;23;20904;-82
2023/02/20 09:19:22;;;;;;;38.35;20.92;;;;;;;;;;6141797;23;20383;-83
2023/02/20 09:21:55;;;;;;;38.05;20.67;;;;;;;;;;6139422;23;20383;-83
2023/02/20 09:24:32;;;;;;;34.38;19.05;;;;;;;;;;6139949;23;20383;-84
2023/02/20 09:27:06;;;;;;;37.88;20.02;;;;;;;;;;6126917;23;20387;-82
2023/02/20 09:29:41;;;;;;;34.60;20.05;;;;;;;;;;6142004;23;20382;-84
2023/02/20 09:32:14;;;;;;;36.28;20.08;;;;;;;;;;6126831;23;20899;-83
2023/02/20 09:34:44;;;;;;;35.72;20.15;;;;;;;;;;6101225;23;20386;-81
2023/02/20 09:37:11;;;;;;;40.70;20.48;;;;;;;;;;6130963;23;20383;-83
2023/02/20 09:39:39;;;;;;;38.17;21.00;;;;;;;;;;6107455;23;20413;-81
2023/02/20 09:42:21;;;;;;;37.10;20.47;;;;;;;;;;6123245;23;20391;-84
2023/02/20 09:44:59;;;;;;;36.05;19.08;;;;;;;;;;6126273;23;20891;-82
2023/02/20 09:47:30;;;;;;;35.05;18.00;;;;;;;;;;6140110;23;20787;-82
2023/02/20 09:50:06;;;;;;;33.90;18.38;;;;;;;;;;6127131;23;20923;-84
2023/02/20 09:52:38;;;;;;;36.60;18.23;;;;;;;;;;6128225;23;20367;-82
2023/02/20 09:55:08;;;;;;;35.25;17.80;;;;;;;;;;6128901;23;20390;-82
2023/02/20 09:57:36;;;;;;;37.25;18.92;;;;;;;;;;6119264;23;20374;-83
2023/02/20 10:00:11;;;;;;;32.90;17.08;;;;;;;;;;6130090;23;20375;-84
2023/02/20 10:02:46;;;;;;;38.40;17.45;;;;;;;;;;6134883;23;20383;-83
2023/02/20 10:05:22;;;;;;;25.80;14.73;;;;;;;;;;6127284;23;20395;-83
2023/02/20 10:07:55;;;;;;;26.75;14.40;;;;;;;;;;6145396;23;20413;-84
2023/02/20 10:10:24;;;;;;;32.10;16.30;;;;;;;;;;6126367;23;20371;-81
2023/02/20 10:12:56;;;;;;;35.58;17.27;;;;;;;;;;6125105;23;20390;-80
2023/02/20 10:15:26;;;;;;;30.48;17.00;;;;;;;;;;6143652;23;20366;-81
2023/02/20 10:18:02;;;;;;;33.97;17.40;;;;;;;;;;6127452;23;20395;-82
2023/02/20 10:20:40;;;;;;;35.38;16.90;;;;;;;;;;6122113;23;20378;-83
2023/02/20 10:23:18;;;;;;;38.10;18.25;;;;;;;;;;6140805;23;20378;-82
2023/02/20 10:25:51;;;;;;;34.58;18.65;;;;;;;;;;6133513;23;20394;-82
2023/02/20 10:28:22;;;;;;;36.65;19.05;;;;;;;;;;6130893;23;20701;-83
2023/02/20 10:30:57;;;;;;;44.60;20.33;;;;;;;;;;6130643;23;20390;-82
2023/02/20 10:33:32;;;;;;;41.90;20.17;;;;;;;;;;6129109;23;20391;-83
2023/02/20 10:36:03;;;;;;;39.67;20.23;;;;;;;;;;6129746;23;20452;-82
2023/02/20 10:38:33;;;;;;;45.70;22.23;;;;;;;;;;6126516;23;21305;-82
2023/02/20 10:41:10;;;;;;;43.50;21.98;;;;;;;;;;6128224;23;20915;-82
2023/02/20 10:43:47;;;;;;;37.40;20.10;;;;;;;;;;6139033;23;20378;-83
2023/02/20 10:46:25;;;;;;;47.17;21.95;;;;;;;;;;6140656;23;20387;-81
2023/02/20 10:48:54;;;;;;;43.25;22.48;;;;;;;;;;6126291;23;20387;-83
2023/02/20 10:51:26;;;;;;;49.57;23.07;;;;;;;;;;6102634;23;20414;-83
2023/02/20 10:53:58;;;;;;;48.72;23.98;;;;;;;;;;6140834;23;20858;-82
2023/02/20 10:56:33;;;;;;;50.22;23.02;;;;;;;;;;6086691;23;20410;-82
2023/02/20 10:59:08;;;;;;;44.30;22.13;;;;;;;;;;6135655;23;20837;-82
2023/02/20 11:01:37;;;;;;;36.33;19.30;;;;;;;;;;6105701;23;20398;-85
2023/02/20 11:04:09;;;;;;;40.95;20.20;;;;;;;;;;6129857;23;21023;-82
2023/02/20 11:06:45;;;;;;;40.47;18.65;;;;;;;;;;6139457;23;20390;-83
2023/02/20 11:09:18;;;;;;;31.52;17.20;;;;;;;;;;6124300;23;20414;-82
2023/02/20 11:11:46;;;;;;;33.78;16.15;;;;;;;;;;6129664;23;20713;-84
2023/02/20 11:14:21;;;;;;;32.25;14.80;;;;;;;;;;6122955;23;20393;-82
2023/02/20 11:16:56;;;;;;;26.38;13.05;;;;;;;;;;6135362;23;20379;-85
2023/02/20 11:19:31;;;;;;;26.67;12.83;;;;;;;;;;6125235;23;20864;-84
2023/02/20 11:22:05;;;;;;;23.88;12.07;;;;;;;;;;6140945;23;20704;-83
2023/02/20 11:24:34;;;;;;;24.27;11.00;;;;;;;;;;6129913;23;20804;-82
2023/02/20 11:27:06;;;;;;;24.40;10.73;;;;;;;;;;6125931;23;20880;-84
2023/02/20 11:29:35;;;;;;;22.73;10.55;;;;;;;;;;6127228;23;20387;-81
2023/02/20 11:32:27;;;;;;;21.38;8.82;;;;;;;;;;6139433;23;20394;-82
2023/02/20 11:35:19;;;;;;;20.35;8.32;;;;;;;;;;6103645;23;20391;-82
2023/02/20 11:37:49;;;;;;;18.13;7.90;;;;;;;;;;6114280;23;20383;-81
2023/02/20 11:40:21;;;;;;;17.73;7.55;;;;;;;;;;6097934;23;20394;-82
2023/02/20 11:42:48;;;;;;;17.38;7.53;;;;;;;;;;6134412;23;20389;-83
2023/02/20 11:45:23;;;;;;;15.88;6.93;;;;;;;;;;6135123;23;20399;-81
2023/02/20 11:48:07;;;;;;;16.27;6.63;;;;;;;;;;6141822;23;20870;-83
2023/02/20 11:50:41;;;;;;;15.87;6.90;;;;;;;;;;6159995;23;21237;-82
2023/02/20 11:53:22;;;;;;;15.02;6.35;;;;;;;;;;6149426;23;20872;-82
2023/02/20 11:56:07;;;;;;;15.05;5.93;;;;;;;;;;6161011;23;20370;-82
2023/02/20 11:58:40;;;;;;;14.82;5.90;;;;;;;;;;6161137;23;20378;-83
2023/02/20 12:01:28;;;;;;;16.85;6.10;;;;;;;;;;6147776;23;20402;-82
2023/02/20 12:04:01;;;;;;;13.67;6.30;;;;;;;;;;6147801;23;20939;-81
2023/02/20 12:06:40;;;;;;;15.45;5.70;;;;;;;;;;6123602;23;20394;-81
2023/02/20 12:09:16;;;;;;;13.50;5.05;;;;;;;;;;6160839;23;20382;-80
2023/02/20 12:11:50;;;;;;;15.10;5.18;;;;;;;;;;6160135;23;20379;-80
2023/02/20 12:14:23;;;;;;;14.57;4.90;;;;;;;;;;6159621;23;20819;-81
2023/02/20 12:16:59;;;;;;;12.40;5.47;;;;;;;;;;6123345;23;20858;-81
2023/02/20 12:19:38;;;;;;;13.77;5.05;;;;;;;;;;6153602;23;20383;-80
2023/02/20 12:22:13;;;;;;;12.88;5.05;;;;;;;;;;6122747;23;20772;-81
2023/02/20 12:24:54;;;;;;;15.30;5.93;;;;;;;;;;6159078;23;20709;-81
2023/02/20 12:27:30;;;;;;;11.82;4.72;;;;;;;;;;6159814;23;20386;-82
2023/02/20 12:30:03;;;;;;;13.45;5.25;;;;;;;;;;6158669;23;20824;-82
2023/02/20 12:32:45;;;;;;;13.32;4.55;;;;;;;;;;6160082;23;20685;-82
2023/02/20 12:35:23;;;;;;;13.27;4.45;;;;;;;;;;6162845;23;20375;-81
2023/02/20 12:37:56;;;;;;;11.80;4.32;;;;;;;;;;6127162;23;20836;-81
2023/02/20 12:40:33;;;;;;;11.70;4.20;;;;;;;;;;6163350;23;20362;-81
2023/02/20 12:43:10;;;;;;;14.07;4.57;;;;;;;;;;6163144;23;20390;-81
2023/02/20 12:45:45;;;;;;;12.57;4.65;;;;;;;;;;6162778;23;20389;-82
2023/02/20 12:48:18;;;;;;;11.90;5.05;;;;;;;;;;6154014;23;20820;-80
2023/02/20 12:50:55;;;;;;;10.27;4.47;;;;;;;;;;6126239;23;21129;-82
2023/02/20 12:53:41;;;;;;;12.30;4.15;;;;;;;;;;6152975;23;20406;-81
2023/02/20 12:56:22;;;;;;;11.43;4.57;;;;;;;;;;6153557;23;20425;-81
2023/02/20 12:58:59;;;;;;;11.35;4.30;;;;;;;;;;6150595;23;20375;-82
2023/02/20 13:01:27;;;;;;;12.63;5.50;;;;;;;;;;6127119;23;20379;-82
2023/02/20 13:04:03;;;;;;;11.18;3.97;;;;;;;;;;6151099;23;20708;-82
2023/02/20 13:06:38;;;;;;;14.52;5.43;;;;;;;;;;6163027;23;20389;-86
2023/02/20 13:09:11;;;;;;;15.18;4.75;;;;;;;;;;6153391;23;20363;-82
2023/02/20 13:11:41;;;;;;;12.80;3.92;;;;;;;;;;6124801;23;20393;-82
2023/02/20 13:14:18;;;;;;;12.10;3.80;;;;;;;;;;6152607;23;20371;-83
2023/02/20 13:16:50;;;;;;;11.77;4.05;;;;;;;;;;6118408;23;20843;-82
2023/02/20 13:19:25;;;;;;;10.13;3.75;;;;;;;;;;6110088;23;20383;-83
2023/02/20 13:21:58;;;;;;;11.23;3.60;;;;;;;;;;6141857;23;20404;-83
2023/02/20 13:24:32;;;;;;;11.33;4.20;;;;;;;;;;6143524;23;20389;-82
2023/02/20 13:27:07;;;;;;;11.05;3.70;;;;;;;;;;6106323;23;20391;-83
2023/02/20 13:29:56;;;;;;;11.25;3.67;;;;;;;;;;6145324;23;20371;-82
2023/02/20 13:32:30;;;;;;;9.90;3.40;;;;;;;;;;6131243;23;20391;-84
2023/02/20 13:35:21;;;;;;;12.48;3.45;;;;;;;;;;6140873;23;20985;-83
2023/02/20 13:37:55;;;;;;;11.23;3.78;;;;;;;;;;6128471;23;20409;-83
2023/02/20 13:40:35;;;;;;;12.17;4.20;;;;;;;;;;6103978;23;20741;-85
2023/02/20 13:43:24;;;;;;;9.85;3.60;;;;;;;;;;6107541;23;20386;-83
2023/02/20 13:46:09;;;;;;;9.25;3.75;;;;;;;;;;6104435;23;20402;-82
2023/02/20 13:48:42;;;;;;;12.40;3.58;;;;;;;;;;6096278;23;20391;-82
2023/02/20 13:51:34;;;;;;;11.35;3.63;;;;;;;;;;6124734;23;20398;-82
2023/02/20 13:54:24;;;;;;;13.07;4.03;;;;;;;;;;6125384;23;20379;-83
2023/02/20 13:56:55;;;;;;;13.20;3.40;;;;;;;;;;6103952;23;20383;-83
2023/02/20 13:59:29;;;;;;;10.48;3.40;;;;;;;;;;6100128;23;20738;-84
2023/02/20 14:02:16;;;;;;;12.43;4.55;;;;;;;;;;6126358;23;20387;-83
2023/02/20 14:04:52;;;;;;;10.50;3.50;;;;;;;;;;6139460;23;20837;-85
2023/02/20 14:07:31;;;;;;;11.50;4.40;;;;;;;;;;6136646;23;20379;-83
2023/02/20 14:10:03;;;;;;;11.30;3.83;;;;;;;;;;6102414;23;20395;-83
2023/02/20 14:12:32;;;;;;;9.93;3.20;;;;;;;;;;6127569;23;20798;-83
2023/02/20 14:15:02;;;;;;;11.30;4.17;;;;;;;;;;6104697;23;20414;-82
2023/02/20 14:17:38;;;;;;;11.20;3.42;;;;;;;;;;6101195;23;20383;-83
2023/02/20 14:20:21;;;;;;;9.90;3.45;;;;;;;;;;6125394;23;20386;-83
2023/02/20 14:23:07;;;;;;;12.10;4.00;;;;;;;;;;6141017;23;20383;-83
2023/02/20 14:25:40;;;;;;;11.43;3.80;;;;;;;;;;6103667;23;20391;-83
2023/02/20 14:28:14;;;;;;;10.05;3.53;;;;;;;;;;6137452;23;20390;-83
2023/02/20 14:31:02;;;;;;;14.95;4.05;;;;;;;;;;6102080;23;20401;-81
2023/02/20 14:33:35;;;;;;;9.90;3.50;;;;;;;;;;6103669;23;20391;-82
2023/02/20 14:36:23;;;;;;;11.70;3.92;;;;;;;;;;6123510;23;20394;-81
2023/02/20 14:39:02;;;;;;;12.70;4.32;;;;;;;;;;6125765;23;20590;-82
2023/02/20 14:41:30;;;;;;;12.43;4.25;;;;;;;;;;6136965;23;20371;-84
2023/02/20 14:44:06;;;;;;;12.60;4.10;;;;;;;;;;6102655;23;20391;-82
2023/02/20 14:46:36;;;;;;;10.35;3.85;;;;;;;;;;6139514;23;20597;-83
2023/02/20 14:49:05;;;;;;;12.70;3.95;;;;;;;;;;6101529;23;20394;-83
2023/02/20 14:51:33;;;;;;;14.98;4.50;;;;;;;;;;6130065;23;20405;-82
2023/02/20 14:54:16;;;;;;;11.73;4.25;;;;;;;;;;6137427;23;20394;-83
2023/02/20 14:56:49;;;;;;;12.43;4.25;;;;;;;;;;6125658;23;20709;-82
2023/02/20 14:59:26;;;;;;;12.18;4.22;;;;;;;;;;6127144;23;20974;-82
2023/02/20 15:01:56;;;;;;;12.27;4.30;;;;;;;;;;6130213;23;20402;-82
2023/02/20 15:04:29;;;;;;;15.07;4.30;;;;;;;;;;6123173;23;21234;-82
2023/02/20 15:07:03;;;;;;;12.95;3.97;;;;;;;;;;6138859;23;21289;-82
2023/02/20 15:09:40;;;;;;;15.70;4.35;;;;;;;;;;6127656;23;20589;-82
2023/02/20 15:12:21;;;;;;;10.30;3.83;;;;;;;;;;6142643;23;20379;-81
2023/02/20 15:14:53;;;;;;;11.23;3.80;;;;;;;;;;6131628;23;20394;-81
2023/02/20 15:17:28;;;;;;;11.87;4.30;;;;;;;;;;6069981;23;20424;-83
2023/02/20 15:19:57;;;;;;;12.73;4.85;;;;;;;;;;6128714;23;20374;-83
2023/02/20 15:22:32;;;;;;;13.35;4.18;;;;;;;;;;6099306;23;20391;-82
2023/02/20 15:25:14;;;;;;;11.55;4.20;;;;;;;;;;6104500;23;21304;-83